createdAt,value
2023-04-06T00:01:09.600Z,9.20
2023-04-06T00:03:37.331Z,10.88
2023-04-06T00:06:05.172Z,10.55
2023-04-06T00:08:32.451Z,10.40
2023-04-06T00:10:59.708Z,11.05
2023-04-06T00:13:27.055Z,9.57
2023-04-06T00:15:54.258Z,10.55
2023-04-06T00:18:21.641Z,9.98
2023-04-06T00:20:48.822Z,10.43
2023-04-06T00:23:16.435Z,11.75
2023-04-06T00:25:43.623Z,12.55
2023-04-06T00:28:10.998Z,10.32
2023-04-06T00:30:38.314Z,9.00
2023-04-06T00:33:05.916Z,10.20
2023-04-06T00:35:33.270Z,10.85
2023-04-06T00:38:00.659Z,9.18
2023-04-06T00:40:29.554Z,10.25
2023-04-06T00:42:56.906Z,9.95
2023-04-06T00:45:24.249Z,8.75
2023-04-06T00:47:51.836Z,10.10
2023-04-06T00:50:19.218Z,10.38
2023-04-06T00:52:46.842Z,10.60
2023-04-06T00:55:14.201Z,10.95
2023-04-06T00:57:43.818Z,11.47
2023-04-06T01:00:12.473Z,13.57
2023-04-06T01:02:40.445Z,15.43
2023-04-06T01:05:09.011Z,12.43
2023-04-06T01:07:47.130Z,13.82
2023-04-06T01:10:28.281Z,10.23
2023-04-06T01:13:12.619Z,10.85
2023-04-06T01:15:51.000Z,12.68
2023-04-06T01:18:29.354Z,14.80
2023-04-06T01:21:16.517Z,14.27
2023-04-06T01:23:58.178Z,16.30
2023-04-06T01:26:36.443Z,13.32
2023-04-06T01:29:07.764Z,13.82
2023-04-06T01:31:35.634Z,16.08
2023-04-06T01:34:02.961Z,14.52
2023-04-06T01:36:30.666Z,12.17
2023-04-06T01:39:18.957Z,14.70
2023-04-06T01:41:48.171Z,13.00
2023-04-06T01:44:20.189Z,12.63
2023-04-06T01:46:53.370Z,12.35
2023-04-06T01:49:20.850Z,11.40
2023-04-06T01:51:55.171Z,10.75
2023-04-06T01:54:22.565Z,12.13
2023-04-06T01:57:11.586Z,13.07
2023-04-06T02:00:01.496Z,9.32
2023-04-06T02:02:54.907Z,13.60
2023-04-06T02:05:27.134Z,9.80
2023-04-06T02:07:56.431Z,13.63
2023-04-06T02:10:32.712Z,12.55
2023-04-06T02:13:04.111Z,14.52
2023-04-06T02:15:32.045Z,15.70
2023-04-06T02:18:00.537Z,11.20
2023-04-06T02:20:27.963Z,10.30
2023-04-06T02:22:55.194Z,10.43
2023-04-06T02:25:22.516Z,11.35
2023-04-06T02:27:49.710Z,9.87
2023-04-06T02:30:16.985Z,11.80
2023-04-06T02:32:44.504Z,11.40
2023-04-06T02:35:12.062Z,12.80
2023-04-06T02:37:41.093Z,11.32
2023-04-06T02:40:09.090Z,13.73
2023-04-06T02:42:36.325Z,13.48
2023-04-06T02:45:04.918Z,12.80
2023-04-06T02:47:38.011Z,14.50
2023-04-06T02:50:06.469Z,12.80
2023-04-06T02:52:37.773Z,16.03
2023-04-06T02:55:05.686Z,11.93
2023-04-06T02:57:32.920Z,16.50
2023-04-06T03:00:00.457Z,15.13
2023-04-06T03:02:35.622Z,15.88
2023-04-06T03:05:08.897Z,12.80
2023-04-06T03:07:40.274Z,14.98
2023-04-06T03:10:12.808Z,13.70
2023-04-06T03:12:40.128Z,11.43
2023-04-06T03:15:16.895Z,11.98
2023-04-06T03:17:49.356Z,16.17
2023-04-06T03:20:36.924Z,16.35
2023-04-06T03:23:04.275Z,13.65
2023-04-06T03:25:36.191Z,13.05
2023-04-06T03:28:06.549Z,13.80
2023-04-06T03:30:38.750Z,12.50
2023-04-06T03:33:06.426Z,13.38
2023-04-06T03:35:39.876Z,14.10
2023-04-06T03:38:08.892Z,12.90
2023-04-06T03:40:36.457Z,12.10
2023-04-06T03:43:05.363Z,12.80
2023-04-06T03:45:35.862Z,14.48
2023-04-06T03:48:03.921Z,12.63
2023-04-06T03:50:34.205Z,16.52
2023-04-06T03:53:04.114Z,15.60
2023-04-06T03:55:31.397Z,12.20
2023-04-06T03:57:58.691Z,15.45
2023-04-06T04:00:26.229Z,17.40
2023-04-06T04:02:56.334Z,15.27
2023-04-06T04:05:26.314Z,16.33
2023-04-06T04:07:54.207Z,17.83
2023-04-06T04:10:25.344Z,18.42
2023-04-06T04:12:52.835Z,20.38
2023-04-06T04:15:20.127Z,19.20
2023-04-06T04:17:50.406Z,21.98
2023-04-06T04:20:18.013Z,17.23
2023-04-06T04:22:45.269Z,16.90
2023-04-06T04:25:12.689Z,19.10
2023-04-06T04:27:45.682Z,23.65
2023-04-06T04:30:13.290Z,19.73
2023-04-06T04:32:40.528Z,19.10
2023-04-06T04:35:10.664Z,22.52
2023-04-06T04:37:42.469Z,20.73
2023-04-06T04:40:11.663Z,17.35
2023-04-06T04:42:48.122Z,20.60
2023-04-06T04:45:23.216Z,17.97
2023-04-06T04:47:50.674Z,23.58
2023-04-06T04:50:19.583Z,22.58
2023-04-06T04:52:50.421Z,20.60
2023-04-06T04:55:22.151Z,21.77
2023-04-06T04:57:53.759Z,20.40
2023-04-06T05:00:26.811Z,28.80
2023-04-06T05:02:57.970Z,19.92
2023-04-06T05:05:31.047Z,28.05
2023-04-06T05:07:58.434Z,21.50
2023-04-06T05:10:39.216Z,23.80
2023-04-06T05:13:06.672Z,27.17
2023-04-06T05:15:36.010Z,27.50
2023-04-06T05:18:11.060Z,23.95
2023-04-06T05:20:41.491Z,22.00
2023-04-06T05:23:09.051Z,23.37
2023-04-06T05:25:36.949Z,30.95
2023-04-06T05:28:15.319Z,27.52
2023-04-06T05:30:45.523Z,27.30
2023-04-06T05:33:13.950Z,31.92
2023-04-06T05:36:02.120Z,28.17
2023-04-06T05:38:30.158Z,26.58
2023-04-06T05:41:02.142Z,25.30
2023-04-06T05:43:32.718Z,22.75
2023-04-06T05:46:01.392Z,19.65
2023-04-06T05:48:28.807Z,20.03
2023-04-06T05:50:56.189Z,23.45
2023-04-06T05:53:30.654Z,25.95
2023-04-06T05:56:03.987Z,20.30
2023-04-06T05:58:31.713Z,21.58
2023-04-06T06:01:04.550Z,24.08
2023-04-06T06:03:42.275Z,19.87
2023-04-06T06:06:09.529Z,16.67
2023-04-06T06:08:47.237Z,18.27
2023-04-06T06:11:17.272Z,17.63
2023-04-06T06:13:44.503Z,17.33
2023-04-06T06:16:11.834Z,16.23
2023-04-06T06:18:44.440Z,16.08
2023-04-06T06:21:13.356Z,17.20
2023-04-06T06:23:42.787Z,16.33
2023-04-06T06:26:12.005Z,18.13
2023-04-06T06:28:39.319Z,19.80
2023-04-06T06:31:06.680Z,18.08
2023-04-06T06:33:34.015Z,17.15
2023-04-06T06:36:01.373Z,18.65
2023-04-06T06:38:28.728Z,19.67
2023-04-06T06:40:56.380Z,17.40
2023-04-06T06:43:26.899Z,15.35
2023-04-06T06:46:00.894Z,12.73
2023-04-06T06:48:29.584Z,14.77
2023-04-06T06:50:56.902Z,14.18
2023-04-06T06:53:24.980Z,11.20
2023-04-06T06:55:52.209Z,13.38
2023-04-06T06:58:23.793Z,12.88
2023-04-06T07:00:51.214Z,13.93
2023-04-06T07:03:19.385Z,12.02
2023-04-06T07:05:53.783Z,12.47
2023-04-06T07:08:22.806Z,10.70
2023-04-06T07:10:53.428Z,13.45
2023-04-06T07:13:24.865Z,10.48
2023-04-06T07:15:55.069Z,10.00
2023-04-06T07:18:23.370Z,12.07
2023-04-06T07:20:51.098Z,11.85
2023-04-06T07:23:18.832Z,11.40
2023-04-06T07:25:46.602Z,11.60
2023-04-06T07:28:13.903Z,13.05
2023-04-06T07:30:41.850Z,11.00
2023-04-06T07:33:10.838Z,13.90
2023-04-06T07:35:39.014Z,10.70
2023-04-06T07:38:07.038Z,10.80
2023-04-06T07:40:35.777Z,12.93
2023-04-06T07:43:04.427Z,15.73
2023-04-06T07:45:32.605Z,11.18
2023-04-06T07:48:01.388Z,11.95
2023-04-06T07:50:29.091Z,12.07
2023-04-06T07:52:57.276Z,12.50
2023-04-06T07:55:24.677Z,12.17
2023-04-06T07:57:52.030Z,10.82
2023-04-06T08:00:19.627Z,13.35
2023-04-06T08:02:47.138Z,10.35
2023-04-06T08:05:14.560Z,11.02
2023-04-06T08:07:42.676Z,11.80
2023-04-06T08:10:15.342Z,11.98
2023-04-06T08:12:42.803Z,11.43
2023-04-06T08:15:10.449Z,12.18
2023-04-06T08:17:37.828Z,11.85
2023-04-06T08:20:05.461Z,10.60
2023-04-06T08:22:32.779Z,9.63
2023-04-06T08:25:00.106Z,10.85
2023-04-06T08:27:27.514Z,12.35
2023-04-06T08:29:54.794Z,10.98
2023-04-06T08:32:22.199Z,11.77
2023-04-06T08:34:49.520Z,8.65
2023-04-06T08:37:16.956Z,10.07
2023-04-06T08:39:44.274Z,10.70
2023-04-06T08:42:15.537Z,12.40
2023-04-06T08:44:43.261Z,11.10
2023-04-06T08:47:10.765Z,10.27
2023-04-06T08:49:39.801Z,11.55
2023-04-06T08:52:11.978Z,13.77
2023-04-06T08:54:39.898Z,9.60
2023-04-06T08:57:08.874Z,10.13
2023-04-06T08:59:37.584Z,12.90
2023-04-06T09:02:08.430Z,10.20
2023-04-06T09:04:37.582Z,9.15
2023-04-06T09:07:04.937Z,10.02
2023-04-06T09:09:32.210Z,12.33
2023-04-06T09:12:06.712Z,10.50
2023-04-06T09:14:38.871Z,9.48
2023-04-06T09:17:06.879Z,12.25
2023-04-06T09:19:34.221Z,13.07
2023-04-06T09:22:10.996Z,9.43
2023-04-06T09:24:46.769Z,9.57
2023-04-06T09:27:14.933Z,10.30
2023-04-06T09:29:43.224Z,9.55
2023-04-06T09:32:12.090Z,8.02
2023-04-06T09:34:40.216Z,10.93
2023-04-06T09:37:17.826Z,11.05
2023-04-06T09:39:46.031Z,9.40
2023-04-06T09:42:25.831Z,10.68
2023-04-06T09:44:53.181Z,12.55
2023-04-06T09:47:21.720Z,8.70
2023-04-06T09:49:51.486Z,10.75
2023-04-06T09:52:20.265Z,9.60
2023-04-06T09:54:51.706Z,10.80
2023-04-06T09:57:30.071Z,10.48
2023-04-06T10:00:12.559Z,17.67
2023-04-06T10:02:51.881Z,10.48
2023-04-06T10:05:47.602Z,13.75
2023-04-06T10:08:15.947Z,10.68
2023-04-06T10:10:44.212Z,11.02
2023-04-06T10:13:12.831Z,13.33
2023-04-06T10:15:43.127Z,6.68
2023-04-06T10:18:10.600Z,11.27
2023-04-06T10:20:42.987Z,13.45
2023-04-06T10:23:38.001Z,13.23
2023-04-06T10:26:05.493Z,9.73
2023-04-06T10:28:36.689Z,12.05
2023-04-06T10:31:07.376Z,13.57
2023-04-06T10:33:35.156Z,13.23
2023-04-06T10:36:16.453Z,16.15
2023-04-06T10:38:43.929Z,12.17
2023-04-06T10:41:12.741Z,12.32
2023-04-06T10:43:42.448Z,10.38
2023-04-06T10:46:11.606Z,8.32
2023-04-06T10:48:47.627Z,13.07
2023-04-06T10:51:17.108Z,9.10
2023-04-06T10:53:46.710Z,11.48
2023-04-06T10:56:17.176Z,11.93
2023-04-06T10:58:49.348Z,11.63
2023-04-06T11:01:18.495Z,11.50
2023-04-06T11:03:54.331Z,15.20
2023-04-06T11:06:30.401Z,11.40
2023-04-06T11:08:58.586Z,9.90
2023-04-06T11:11:27.769Z,10.70
2023-04-06T11:13:56.676Z,10.00
2023-04-06T11:16:28.961Z,8.30
2023-04-06T11:19:04.186Z,11.15
2023-04-06T11:21:48.445Z,10.95
2023-04-06T11:24:24.130Z,8.85
2023-04-06T11:26:58.969Z,10.40
2023-04-06T11:29:34.838Z,8.33
2023-04-06T11:32:06.881Z,6.72
2023-04-06T11:34:39.424Z,8.77
2023-04-06T11:37:12.011Z,8.07
2023-04-06T11:39:41.692Z,10.27
2023-04-06T11:42:09.550Z,11.60
2023-04-06T11:44:50.576Z,8.68
2023-04-06T11:47:18.077Z,11.52
2023-04-06T11:49:46.363Z,8.60
2023-04-06T11:52:28.839Z,9.43
2023-04-06T11:54:58.319Z,9.03
2023-04-06T11:57:26.620Z,7.13
2023-04-06T11:59:54.300Z,11.73
2023-04-06T12:02:21.637Z,8.82
2023-04-06T12:04:49.015Z,9.40
2023-04-06T12:07:16.790Z,9.00
2023-04-06T12:09:44.401Z,8.52
2023-04-06T12:12:11.803Z,6.55
2023-04-06T12:14:39.159Z,9.13
2023-04-06T12:17:06.396Z,8.77
2023-04-06T12:19:33.703Z,11.00
2023-04-06T12:22:01.023Z,8.93
2023-04-06T12:24:29.674Z,11.18
2023-04-06T12:27:08.630Z,7.07
2023-04-06T12:29:38.252Z,8.20
2023-04-06T12:32:06.393Z,8.00
2023-04-06T12:34:33.797Z,8.18
2023-04-06T12:37:01.165Z,13.05
2023-04-06T12:39:28.920Z,10.52
2023-04-06T12:41:57.315Z,11.57
2023-04-06T12:44:25.636Z,13.57
2023-04-06T12:46:54.186Z,6.45
2023-04-06T12:49:22.943Z,11.23
2023-04-06T12:51:51.307Z,13.48
2023-04-06T12:54:18.681Z,8.05
2023-04-06T12:56:45.956Z,6.23
2023-04-06T12:59:13.370Z,12.00
2023-04-06T13:01:40.900Z,9.70
2023-04-06T13:04:08.111Z,6.88
2023-04-06T13:06:35.617Z,6.50
2023-04-06T13:09:03.078Z,6.60
2023-04-06T13:11:30.920Z,8.90
2023-04-06T13:13:58.267Z,6.65
2023-04-06T13:16:25.931Z,6.72
2023-04-06T13:18:53.268Z,8.07
2023-04-06T13:21:21.803Z,8.30
2023-04-06T13:23:49.159Z,13.18
2023-04-06T13:26:17.706Z,7.45
2023-04-06T13:28:45.160Z,13.32
2023-04-06T13:31:12.619Z,10.20
2023-04-06T13:33:41.812Z,13.43
2023-04-06T13:36:09.478Z,7.32
2023-04-06T13:38:39.807Z,13.52
2023-04-06T13:41:07.172Z,8.70
2023-04-06T13:43:34.482Z,9.13
2023-04-06T13:46:02.487Z,8.07
2023-04-06T13:48:29.944Z,10.75
2023-04-06T13:50:57.290Z,10.63
2023-04-06T13:53:24.507Z,11.48
2023-04-06T13:55:56.118Z,10.65
2023-04-06T13:58:23.818Z,9.53
2023-04-06T14:00:51.820Z,16.17
2023-04-06T14:03:20.078Z,12.80
2023-04-06T14:05:47.389Z,9.38
2023-04-06T14:08:14.770Z,10.25
2023-04-06T14:10:43.359Z,11.10
2023-04-06T14:13:11.490Z,10.05
2023-04-06T14:15:39.041Z,13.43
2023-04-06T14:18:06.892Z,9.23
2023-04-06T14:20:34.342Z,11.50
2023-04-06T14:23:04.975Z,14.50
2023-04-06T14:25:33.119Z,6.88
2023-04-06T14:28:00.354Z,13.05
2023-04-06T14:30:28.936Z,11.57
2023-04-06T14:32:58.855Z,10.00
2023-04-06T14:35:26.559Z,13.90
2023-04-06T14:37:53.746Z,9.55
2023-04-06T14:40:20.896Z,13.30
2023-04-06T14:42:48.092Z,14.20
2023-04-06T14:45:15.793Z,12.50
2023-04-06T14:47:43.019Z,15.50
2023-04-06T14:50:10.701Z,13.02
2023-04-06T14:52:38.217Z,15.07
2023-04-06T14:55:05.822Z,13.57
2023-04-06T14:57:33.734Z,13.40
2023-04-06T15:00:00.955Z,16.53
2023-04-06T15:02:28.333Z,14.85
2023-04-06T15:04:55.893Z,13.02
2023-04-06T15:07:23.051Z,17.52
2023-04-06T15:09:50.451Z,13.02
2023-04-06T15:12:17.580Z,9.57
2023-04-06T15:14:44.825Z,17.20
2023-04-06T15:17:12.015Z,12.18
2023-04-06T15:19:39.208Z,14.07
2023-04-06T15:22:06.353Z,11.35
2023-04-06T15:24:33.604Z,15.50
2023-04-06T15:27:00.834Z,8.88
2023-04-06T15:29:28.079Z,12.68
2023-04-06T15:31:55.365Z,20.50
2023-04-06T15:34:22.718Z,12.63
2023-04-06T15:36:49.919Z,13.17
2023-04-06T15:39:17.196Z,14.90
2023-04-06T15:41:44.333Z,16.88
2023-04-06T15:44:11.532Z,15.27
2023-04-06T15:46:38.693Z,16.10
2023-04-06T15:49:06.235Z,14.53
2023-04-06T15:51:33.788Z,13.45
2023-04-06T15:54:01.113Z,11.20
2023-04-06T15:56:28.346Z,15.30
2023-04-06T15:58:55.602Z,12.18
2023-04-06T16:01:22.848Z,11.73
2023-04-06T16:03:50.302Z,14.00
2023-04-06T16:06:17.966Z,15.80
2023-04-06T16:08:45.539Z,11.57
2023-04-06T16:11:12.946Z,16.23
2023-04-06T16:13:40.427Z,14.27
2023-04-06T16:16:09.044Z,21.27
2023-04-06T16:18:36.762Z,14.60
2023-04-06T16:21:04.120Z,18.98
2023-04-06T16:23:31.492Z,11.50
2023-04-06T16:25:58.726Z,12.40
2023-04-06T16:28:25.914Z,13.07
2023-04-06T16:30:53.319Z,11.32
2023-04-06T16:33:21.076Z,10.02
2023-04-06T16:35:51.327Z,12.68
2023-04-06T16:38:18.664Z,10.63
2023-04-06T16:40:46.103Z,9.55
2023-04-06T16:43:14.290Z,13.80
2023-04-06T16:45:41.583Z,14.40
2023-04-06T16:48:08.888Z,17.02
2023-04-06T16:50:36.450Z,11.13
2023-04-06T16:53:03.775Z,16.10
2023-04-06T16:55:31.043Z,11.52
2023-04-06T16:57:58.206Z,12.07
2023-04-06T17:00:25.380Z,12.27
2023-04-06T17:02:52.763Z,18.40
2023-04-06T17:05:24.802Z,13.43
2023-04-06T17:07:55.445Z,14.82
2023-04-06T17:10:28.929Z,12.98
2023-04-06T17:13:01.711Z,12.77
2023-04-06T17:15:29.610Z,16.13
2023-04-06T17:17:58.007Z,15.77
2023-04-06T17:20:25.203Z,15.23
2023-04-06T17:22:52.526Z,16.10
2023-04-06T17:25:19.825Z,14.35
2023-04-06T17:27:47.568Z,14.47
2023-04-06T17:30:17.015Z,12.73
2023-04-06T17:32:46.227Z,11.85
2023-04-06T17:35:13.618Z,12.90
2023-04-06T17:37:44.460Z,11.90
2023-04-06T17:40:11.928Z,18.07
2023-04-06T17:42:39.110Z,14.77
2023-04-06T17:45:07.140Z,11.95
2023-04-06T17:47:34.319Z,11.80
2023-04-06T17:50:02.312Z,11.68
2023-04-06T17:52:29.658Z,8.50
2023-04-06T17:54:57.000Z,10.00
2023-04-06T17:57:24.289Z,13.20
2023-04-06T17:59:51.597Z,9.18
2023-04-06T18:02:19.985Z,9.80
2023-04-06T18:04:50.892Z,10.03
2023-04-06T18:07:18.213Z,13.57
2023-04-06T18:09:45.544Z,11.38
2023-04-06T18:12:12.868Z,10.68
2023-04-06T18:14:41.436Z,14.73
2023-04-06T18:17:08.697Z,13.47
2023-04-06T18:19:36.070Z,12.55
2023-04-06T18:22:03.375Z,13.73
2023-04-06T18:24:41.322Z,13.00
2023-04-06T18:27:10.642Z,13.90
2023-04-06T18:29:38.045Z,17.07
2023-04-06T18:32:06.596Z,13.00
2023-04-06T18:34:34.184Z,13.90
2023-04-06T18:37:01.819Z,14.40
2023-04-06T18:39:29.204Z,14.10
2023-04-06T18:41:56.667Z,15.13
2023-04-06T18:44:23.847Z,20.02
2023-04-06T18:46:54.366Z,13.38
2023-04-06T18:49:22.527Z,16.52
2023-04-06T18:51:49.823Z,15.95
2023-04-06T18:54:17.126Z,14.50
2023-04-06T18:56:44.442Z,13.27
2023-04-06T18:59:12.126Z,17.10
2023-04-06T19:01:43.682Z,12.55
2023-04-06T19:04:14.076Z,16.73
2023-04-06T19:06:41.418Z,16.03
2023-04-06T19:09:08.561Z,14.88
2023-04-06T19:11:36.940Z,12.55
2023-04-06T19:14:04.380Z,15.35
2023-04-06T19:16:31.637Z,16.73
2023-04-06T19:19:00.031Z,15.63
2023-04-06T19:21:27.983Z,15.95
2023-04-06T19:23:56.140Z,14.80
2023-04-06T19:26:25.383Z,12.50
2023-04-06T19:28:52.555Z,12.57
2023-04-06T19:31:19.948Z,14.27
2023-04-06T19:33:48.028Z,15.05
2023-04-06T19:36:16.025Z,16.08
2023-04-06T19:38:43.394Z,14.75
2023-04-06T19:41:10.549Z,11.15
2023-04-06T19:43:38.101Z,10.87
2023-04-06T19:46:05.752Z,14.32
2023-04-06T19:48:34.003Z,15.35
2023-04-06T19:51:01.315Z,11.57
2023-04-06T19:53:28.501Z,12.63
2023-04-06T19:55:55.758Z,14.20
2023-04-06T19:58:23.697Z,10.93
2023-04-06T20:00:51.044Z,12.38
2023-04-06T20:03:18.347Z,11.77
2023-04-06T20:05:46.679Z,13.82
2023-04-06T20:08:14.216Z,12.67
2023-04-06T20:10:41.582Z,16.50
2023-04-06T20:13:08.794Z,15.88
2023-04-06T20:15:36.033Z,13.32
2023-04-06T20:18:03.422Z,12.30
2023-04-06T20:20:30.949Z,16.67
2023-04-06T20:22:58.163Z,14.40
2023-04-06T20:25:25.707Z,11.30
2023-04-06T20:27:54.073Z,13.13
2023-04-06T20:30:21.359Z,15.50
2023-04-06T20:32:48.617Z,11.90
2023-04-06T20:35:16.486Z,13.63
2023-04-06T20:37:46.329Z,12.70
2023-04-06T20:40:13.688Z,9.98
2023-04-06T20:42:41.799Z,15.63
2023-04-06T20:45:09.504Z,16.80
2023-04-06T20:47:36.719Z,14.38
2023-04-06T20:50:04.183Z,15.13
2023-04-06T20:52:31.403Z,19.13
2023-04-06T20:54:58.592Z,14.52
2023-04-06T20:57:26.072Z,15.83
2023-04-06T20:59:53.547Z,14.05
2023-04-06T21:02:21.218Z,14.43
2023-04-06T21:04:48.611Z,13.02
2023-04-06T21:07:15.923Z,17.33
2023-04-06T21:09:43.089Z,14.13
2023-04-06T21:12:10.266Z,19.52
2023-04-06T21:14:37.580Z,10.35
2023-04-06T21:17:04.851Z,17.83
2023-04-06T21:19:32.106Z,17.67
2023-04-06T21:21:59.613Z,16.70
2023-04-06T21:24:27.106Z,17.15
2023-04-06T21:26:54.405Z,21.10
2023-04-06T21:29:21.669Z,18.58
2023-04-06T21:31:48.893Z,16.85
2023-04-06T21:34:16.335Z,15.63
2023-04-06T21:36:44.040Z,21.40
2023-04-06T21:39:11.203Z,15.35
2023-04-06T21:41:40.342Z,21.60
2023-04-06T21:44:07.619Z,18.30
2023-04-06T21:46:35.301Z,16.87
2023-04-06T21:49:02.494Z,17.95
2023-04-06T21:51:29.765Z,20.20
2023-04-06T21:53:56.947Z,17.55
2023-04-06T21:56:25.398Z,14.23
2023-04-06T21:58:53.496Z,16.17
2023-04-06T22:01:21.259Z,17.50
2023-04-06T22:03:48.686Z,17.15
2023-04-06T22:06:16.098Z,13.32
2023-04-06T22:08:46.050Z,15.23
2023-04-06T22:11:13.217Z,16.67
2023-04-06T22:13:40.330Z,14.45
2023-04-06T22:16:08.125Z,14.48
2023-04-06T22:18:38.068Z,18.05
2023-04-06T22:21:07.079Z,15.32
2023-04-06T22:23:35.609Z,10.97
2023-04-06T22:26:02.919Z,18.73
2023-04-06T22:28:30.063Z,17.80
2023-04-06T22:30:57.263Z,17.45
2023-04-06T22:33:24.470Z,19.60
2023-04-06T22:35:51.677Z,20.50
2023-04-06T22:38:18.865Z,14.65
2023-04-06T22:40:46.083Z,16.55
2023-04-06T22:43:13.254Z,22.55
2023-04-06T22:45:40.534Z,16.42
2023-04-06T22:48:08.135Z,20.40
2023-04-06T22:50:35.490Z,17.77
2023-04-06T22:53:02.648Z,18.45
2023-04-06T22:55:30.179Z,19.45
2023-04-06T22:57:57.342Z,20.23
2023-04-06T23:00:24.646Z,19.93
2023-04-06T23:02:51.990Z,15.10
2023-04-06T23:05:19.293Z,15.27
2023-04-06T23:07:46.953Z,16.48
2023-04-06T23:10:14.746Z,15.43
2023-04-06T23:12:41.873Z,16.33
2023-04-06T23:15:09.682Z,12.80
2023-04-06T23:17:36.802Z,13.98
2023-04-06T23:20:04.518Z,16.88
2023-04-06T23:22:31.906Z,15.27
2023-04-06T23:24:59.046Z,15.63
2023-04-06T23:27:26.171Z,16.33
2023-04-06T23:29:54.231Z,17.00
2023-04-06T23:32:21.463Z,17.98
2023-04-06T23:34:48.700Z,20.30
2023-04-06T23:37:16.264Z,20.83
2023-04-06T23:39:44.883Z,22.42
2023-04-06T23:42:12.062Z,18.60
2023-04-06T23:44:39.259Z,18.85
2023-04-06T23:47:06.611Z,19.90
2023-04-06T23:49:34.260Z,21.87
2023-04-06T23:52:01.814Z,18.33
2023-04-06T23:54:29.054Z,20.05
2023-04-06T23:56:58.268Z,19.95
2023-04-06T23:59:25.774Z,21.30
